Terminal Aerodrome Forecast
Issued by NWS Sterling, VA

Home | Current Version | Previous Version | Text Only | Print | Product List | Glossary On
Versions: 1 2 3 4 5 6 7 8 9 10 11 12 13 14 15 16 17 18 19 20 21 22 23
000
FTUS41 KLWX 230838 AAB
TAFDCA
TAF AMD
KDCA 230838Z 2309/2406 06007KT P6SM BKN006
     FM231000 VRB03KT 5SM BR OVC006
     FM231300 15008KT P6SM BKN035
     FM240000 15011G21KT P6SM -SHRA OVC035
     FM240100 15011G21KT P6SM -SHRA OVC025
     FM240300 16012G23KT 5SM SHRA OVC025
     FM240500 16012G26KT 5SM SHRA OVC015 WS020/16040KT=

USA.gov is the U.S. government's official web portal to all federal, state and local government web resources and services.